Time;durP1;ratioP1;P1;durP2;ratioP2;P2;SDS_P1;SDS_P2;PMS_P1;PMS_P2;Temp;Humidity;BMP_temperature;BMP_pressure;BME280_temperature;BME280_humidity;BME280_pressure;Samples;Min_cycle;Max_cycle;Signal;HPM_P1;HPM_P2
2023/10/25 00:02:44;;;;;;;7.60;3.70;;;8.50;99.90;;;;;;7346484;32;20193;-57
2023/10/25 00:06:46;;;;;;;8.40;3.83;;;8.40;99.90;;;;;;7346027;32;20113;-56
2023/10/25 00:10:48;;;;;;;5.87;3.75;;;8.40;99.90;;;;;;7344220;32;20123;-58
2023/10/25 00:14:50;;;;;;;8.50;3.95;;;8.40;99.90;;;;;;7347451;32;20133;-57
2023/10/25 00:18:51;;;;;;;5.87;4.03;;;8.40;99.90;;;;;;7345291;32;20540;-57
2023/10/25 00:22:53;;;;;;;7.40;4.20;;;8.40;99.90;;;;;;7345857;32;20528;-56
2023/10/25 00:26:55;;;;;;;6.65;4.32;;;8.40;99.90;;;;;;7348333;32;20568;-57
2023/10/25 00:30:56;;;;;;;11.15;4.30;;;8.40;99.90;;;;;;7336010;32;20103;-55
2023/10/25 00:34:58;;;;;;;7.97;3.60;;;8.40;99.90;;;;;;7345981;32;20491;-57
2023/10/25 00:39:00;;;;;;;9.15;3.70;;;8.30;99.90;;;;;;7346282;32;20142;-57
2023/10/25 00:43:20;;;;;;;8.27;4.20;;;8.40;99.90;;;;;;7352802;32;20217;-56
2023/10/25 00:47:22;;;;;;;11.12;4.32;;;8.40;99.90;;;;;;7342130;32;20158;-56
2023/10/25 00:51:26;;;;;;;6.82;4.07;;;8.30;99.90;;;;;;7345098;32;20120;-55
2023/10/25 00:55:28;;;;;;;10.02;4.72;;;8.30;99.90;;;;;;7346080;32;20479;-56
2023/10/25 00:59:31;;;;;;;8.60;3.62;;;8.20;99.90;;;;;;7343175;32;20111;-56
2023/10/25 01:03:32;;;;;;;8.90;3.80;;;8.20;99.90;;;;;;7346202;32;20249;-56
2023/10/25 01:07:34;;;;;;;5.20;3.65;;;8.20;99.90;;;;;;7351149;32;20133;-56
2023/10/25 01:11:37;;;;;;;6.10;4.00;;;8.20;99.90;;;;;;7349863;32;20478;-56
2023/10/25 01:15:38;;;;;;;6.12;4.90;;;8.20;99.90;;;;;;7348295;32;20551;-56
2023/10/25 01:19:40;;;;;;;7.37;3.47;;;8.20;99.90;;;;;;7337680;32;20287;-56
2023/10/25 01:23:42;;;;;;;5.80;3.53;;;8.20;99.90;;;;;;7347295;32;20107;-57
2023/10/25 01:27:44;;;;;;;6.72;3.65;;;8.20;99.90;;;;;;7352039;32;20225;-56
2023/10/25 01:31:46;;;;;;;6.07;3.37;;;8.20;99.90;;;;;;7340320;32;20138;-56
2023/10/25 01:35:49;;;;;;;6.50;3.42;;;8.30;99.90;;;;;;7353021;32;20171;-57
2023/10/25 01:39:51;;;;;;;7.30;3.85;;;8.20;99.90;;;;;;7354725;32;20138;-56
2023/10/25 01:43:52;;;;;;;5.78;3.50;;;8.30;99.90;;;;;;7347046;32;20210;-56
2023/10/25 01:47:54;;;;;;;6.25;3.45;;;8.30;99.90;;;;;;7349501;32;20226;-56
2023/10/25 01:51:57;;;;;;;8.10;3.53;;;8.30;99.90;;;;;;7352326;32;20132;-56
2023/10/25 01:55:59;;;;;;;7.60;3.70;;;8.30;99.90;;;;;;7344170;32;20103;-57
2023/10/25 02:00:03;;;;;;;5.85;3.55;;;8.30;99.90;;;;;;7348477;32;20198;-57
2023/10/25 02:04:04;;;;;;;9.65;3.97;;;8.40;99.90;;;;;;7350159;32;20787;-56
2023/10/25 02:08:06;;;;;;;5.35;3.20;;;8.50;99.90;;;;;;7350406;32;20122;-56
2023/10/25 02:12:08;;;;;;;5.40;2.97;;;8.40;99.90;;;;;;7347105;32;20274;-57
2023/10/25 02:16:15;;;;;;;5.62;2.60;;;8.40;99.90;;;;;;7345246;32;22039;-57
2023/10/25 02:20:17;;;;;;;;;;;8.40;99.90;;;;;;7349579;32;20179;-56
2023/10/25 02:24:19;;;;;;;7.47;3.25;;;8.50;99.90;;;;;;7353960;32;20367;-56
2023/10/25 02:28:20;;;;;;;5.57;3.05;;;8.40;99.90;;;;;;7345491;32;20148;-56
2023/10/25 02:32:22;;;;;;;5.40;2.78;;;8.40;99.90;;;;;;7350662;32;20260;-55
2023/10/25 02:36:24;;;;;;;5.72;3.08;;;8.40;99.90;;;;;;7348297;32;20197;-56
2023/10/25 02:40:26;;;;;;;6.28;3.35;;;8.40;99.90;;;;;;7344524;32;20198;-55
2023/10/25 02:44:27;;;;;;;3.85;2.80;;;8.30;99.90;;;;;;7350527;32;20115;-56
2023/10/25 02:48:29;;;;;;;6.35;2.85;;;8.40;99.90;;;;;;7348112;32;20163;-55
2023/10/25 02:52:31;;;;;;;3.75;2.20;;;8.30;99.90;;;;;;7346498;32;20170;-55
2023/10/25 02:56:32;;;;;;;5.00;2.00;;;8.30;99.90;;;;;;7338744;32;20263;-55
2023/10/25 03:00:36;;;;;;;8.32;2.20;;;8.40;99.90;;;;;;7353546;32;20148;-55
2023/10/25 03:04:37;;;;;;;4.05;2.17;;;8.40;99.90;;;;;;7344402;32;20126;-55
2023/10/25 03:08:39;;;;;;;3.35;1.58;;;8.30;99.90;;;;;;7346656;32;20137;-54
2023/10/25 03:12:41;;;;;;;5.70;1.98;;;8.30;99.90;;;;;;7345329;32;20663;-57
2023/10/25 03:16:43;;;;;;;3.28;1.33;;;8.40;99.90;;;;;;7351411;32;20588;-57
2023/10/25 03:20:45;;;;;;;4.87;2.03;;;8.40;99.90;;;;;;7348870;32;20146;-55
2023/10/25 03:24:46;;;;;;;3.17;1.60;;;8.40;99.90;;;;;;7342758;32;20545;-55
2023/10/25 03:28:50;;;;;;;6.12;1.45;;;8.50;99.90;;;;;;7352205;32;20499;-55
2023/10/25 03:32:52;;;;;;;4.22;1.30;;;8.50;99.90;;;;;;7347740;32;20168;-55
2023/10/25 03:36:54;;;;;;;5.25;1.48;;;8.50;99.90;;;;;;7344634;32;20261;-55
2023/10/25 03:41:06;;;;;;;6.93;1.60;;;8.50;99.90;;;;;;7347077;32;20130;-55
2023/10/25 03:45:09;;;;;;;3.62;1.08;;;8.50;99.90;;;;;;7347532;32;20125;-55
2023/10/25 03:49:11;;;;;;;2.45;1.10;;;8.50;99.90;;;;;;7355225;32;20133;-55
2023/10/25 03:53:12;;;;;;;6.57;1.25;;;8.50;99.90;;;;;;7346684;32;20235;-55
2023/10/25 03:57:14;;;;;;;4.93;1.80;;;8.50;99.90;;;;;;7345205;32;20135;-55
2023/10/25 04:01:16;;;;;;;3.22;1.30;;;8.50;99.90;;;;;;7348986;32;20187;-56
2023/10/25 04:05:18;;;;;;;2.65;1.20;;;8.50;99.90;;;;;;7344659;32;20133;-56
2023/10/25 04:09:19;;;;;;;4.97;1.05;;;8.50;99.90;;;;;;7345915;32;20129;-56
2023/10/25 04:13:21;;;;;;;4.87;1.20;;;8.50;99.90;;;;;;7341992;32;20139;-56
2023/10/25 04:17:23;;;;;;;7.30;1.52;;;8.50;99.90;;;;;;7342034;32;20212;-55
2023/10/25 04:21:25;;;;;;;5.20;1.60;;;8.50;99.90;;;;;;7350140;32;20503;-56
2023/10/25 04:25:27;;;;;;;8.05;1.42;;;8.60;99.90;;;;;;7345305;32;20560;-56
2023/10/25 04:29:29;;;;;;;3.00;1.17;;;8.60;99.90;;;;;;7339747;32;20256;-56
2023/10/25 04:33:31;;;;;;;6.10;1.27;;;8.70;99.90;;;;;;7347094;32;20250;-57
2023/10/25 04:37:33;;;;;;;3.87;1.37;;;8.70;99.90;;;;;;7342368;32;20158;-56
2023/10/25 04:41:34;;;;;;;3.62;1.30;;;8.70;99.90;;;;;;7346684;32;20572;-56
2023/10/25 04:45:36;;;;;;;4.80;1.50;;;8.70;99.90;;;;;;7343652;32;20107;-55
2023/10/25 04:49:38;;;;;;;7.05;1.40;;;8.70;99.90;;;;;;7337757;32;20135;-56
2023/10/25 04:53:41;;;;;;;3.92;1.62;;;8.70;99.90;;;;;;7338076;32;20946;-56
2023/10/25 04:57:42;;;;;;;3.72;1.58;;;8.70;99.90;;;;;;7341817;32;20492;-55
2023/10/25 05:01:44;;;;;;;5.18;1.67;;;8.80;99.90;;;;;;7340710;32;20227;-55
2023/10/25 05:05:46;;;;;;;7.12;1.70;;;8.80;99.90;;;;;;7336313;32;20115;-56
2023/10/25 05:09:48;;;;;;;4.00;1.70;;;8.80;99.90;;;;;;7340644;32;20194;-55
2023/10/25 05:13:50;;;;;;;3.92;1.70;;;8.90;99.90;;;;;;7339965;32;20560;-56
2023/10/25 05:17:52;;;;;;;3.33;1.52;;;8.90;99.90;;;;;;7343980;32;20111;-56
2023/10/25 05:21:55;;;;;;;4.25;1.65;;;8.90;99.90;;;;;;7343906;32;20577;-56
2023/10/25 05:26:02;;;;;;;3.92;1.85;;;8.80;99.90;;;;;;7336441;32;20876;-56
2023/10/25 05:30:07;;;;;;;4.07;1.90;;;8.90;99.90;;;;;;7346999;32;20196;-56
2023/10/25 05:34:10;;;;;;;5.45;1.80;;;8.80;99.90;;;;;;7343864;32;20160;-57
2023/10/25 05:38:13;;;;;;;3.85;1.67;;;8.80;99.90;;;;;;7337166;32;20598;-56
2023/10/25 05:42:19;;;;;;;8.38;1.90;;;8.80;99.90;;;;;;7345662;32;20216;-56
2023/10/25 05:46:21;;;;;;;7.17;1.97;;;8.80;99.90;;;;;;7341973;32;20183;-57
2023/10/25 05:50:23;;;;;;;9.25;2.25;;;8.80;99.90;;;;;;7339755;32;20160;-57
2023/10/25 05:54:25;;;;;;;4.72;1.98;;;8.70;99.90;;;;;;7344434;32;20519;-57
2023/10/25 05:58:27;;;;;;;4.10;2.17;;;8.70;99.90;;;;;;7341695;32;20630;-56
2023/10/25 06:02:32;;;;;;;6.40;2.15;;;8.80;99.90;;;;;;7342958;32;20150;-56
2023/10/25 06:06:35;;;;;;;5.65;2.30;;;8.70;99.90;;;;;;7340240;32;20147;-56
2023/10/25 06:10:38;;;;;;;4.32;2.35;;;8.80;99.90;;;;;;7341049;32;20180;-57
2023/10/25 06:14:39;;;;;;;5.15;2.40;;;8.80;99.90;;;;;;7341775;32;20687;-58
2023/10/25 06:18:41;;;;;;;5.00;1.90;;;8.80;99.90;;;;;;7338606;32;20185;-56
2023/10/25 06:22:43;;;;;;;10.18;1.98;;;8.80;99.90;;;;;;7344482;32;20198;-58
2023/10/25 06:26:45;;;;;;;5.78;1.75;;;8.90;99.90;;;;;;7352771;32;20585;-57
2023/10/25 06:30:47;;;;;;;4.65;1.87;;;9.00;99.90;;;;;;7352145;32;20133;-57
2023/10/25 06:34:49;;;;;;;7.07;1.65;;;9.00;99.90;;;;;;7343417;32;20138;-58
2023/10/25 06:38:51;;;;;;;5.68;1.70;;;9.10;99.90;;;;;;7342103;32;20162;-58
2023/10/25 06:42:53;;;;;;;4.80;1.55;;;9.10;99.90;;;;;;7351299;32;20157;-58
2023/10/25 06:46:55;;;;;;;5.43;1.77;;;9.20;99.90;;;;;;7338775;32;20153;-57
2023/10/25 06:50:58;;;;;;;4.47;1.50;;;9.20;99.90;;;;;;7344828;32;20487;-57
2023/10/25 06:55:00;;;;;;;4.40;1.52;;;9.30;99.90;;;;;;7351674;32;20225;-57
2023/10/25 06:59:03;;;;;;;4.10;1.00;;;9.40;99.90;;;;;;7346154;32;20133;-57
2023/10/25 07:03:09;;;;;;;4.82;1.55;;;9.50;99.90;;;;;;7348449;32;20135;-58
2023/10/25 07:07:12;;;;;;;5.22;1.08;;;9.50;99.90;;;;;;7344662;32;20108;-57
2023/10/25 07:11:14;;;;;;;3.95;1.23;;;9.70;99.90;;;;;;7340051;32;20147;-58
2023/10/25 07:15:16;;;;;;;4.97;1.50;;;9.70;99.90;;;;;;7350276;32;20262;-58
2023/10/25 07:19:18;;;;;;;2.80;1.02;;;9.80;99.90;;;;;;7346342;32;20527;-57
2023/10/25 07:23:19;;;;;;;5.70;1.17;;;9.90;99.90;;;;;;7345758;32;20108;-57
2023/10/25 07:27:21;;;;;;;8.02;1.40;;;9.90;99.90;;;;;;7343372;32;20650;-58
2023/10/25 07:31:23;;;;;;;3.47;1.20;;;10.00;99.90;;;;;;7345160;32;20603;-57
2023/10/25 07:35:25;;;;;;;6.18;1.33;;;10.10;99.90;;;;;;7355296;32;20132;-57
2023/10/25 07:39:27;;;;;;;5.78;1.00;;;10.10;99.90;;;;;;7358490;32;20171;-57
2023/10/25 07:43:30;;;;;;;6.47;1.48;;;10.20;99.90;;;;;;7344390;32;20125;-57
2023/10/25 07:47:32;;;;;;;5.45;1.30;;;10.20;99.90;;;;;;7346241;32;20104;-57
2023/10/25 07:51:36;;;;;;;6.55;1.10;;;10.10;99.90;;;;;;7339794;32;20198;-57
2023/10/25 07:55:41;;;;;;;5.07;1.00;;;10.00;99.90;;;;;;7360773;32;20239;-57
2023/10/25 07:59:46;;;;;;;5.12;1.00;;;10.10;99.90;;;;;;7353989;32;20129;-57
2023/10/25 08:03:48;;;;;;;2.22;1.00;;;10.10;99.90;;;;;;7354179;32;20187;-57
2023/10/25 08:07:49;;;;;;;5.65;1.12;;;10.00;99.90;;;;;;7354705;32;20111;-57
2023/10/25 08:11:52;;;;;;;3.30;0.90;;;10.10;99.90;;;;;;7354167;32;20139;-57
2023/10/25 08:15:58;;;;;;;3.25;1.08;;;10.10;99.90;;;;;;7355137;32;20206;-57
2023/10/25 08:20:00;;;;;;;4.20;0.97;;;10.40;99.90;;;;;;7346468;32;20286;-57
2023/10/25 08:24:05;;;;;;;4.80;1.12;;;10.50;99.90;;;;;;7345153;32;20103;-57
2023/10/25 08:28:07;;;;;;;1.55;0.80;;;10.60;99.90;;;;;;7342535;32;20683;-57
2023/10/25 08:32:08;;;;;;;2.70;0.80;;;10.70;99.90;;;;;;7344520;32;20133;-57
2023/10/25 08:36:10;;;;;;;3.75;0.85;;;10.80;99.90;;;;;;7346760;32;20127;-57
2023/10/25 08:40:14;;;;;;;1.58;0.80;;;10.80;99.90;;;;;;7348078;32;20805;-58
2023/10/25 08:44:16;;;;;;;6.85;1.00;;;10.90;99.90;;;;;;7341840;32;20179;-57
2023/10/25 08:48:18;;;;;;;6.50;1.33;;;11.10;99.90;;;;;;7351240;32;20171;-58
2023/10/25 08:52:25;;;;;;;2.25;0.90;;;11.30;99.90;;;;;;7343974;32;20115;-58
2023/10/25 08:56:27;;;;;;;3.45;0.80;;;11.50;99.90;;;;;;7345184;32;20285;-57
2023/10/25 09:00:30;;;;;;;6.07;0.90;;;11.70;99.90;;;;;;7347540;32;20268;-58
2023/10/25 09:05:06;;;;;;;2.25;0.75;;;11.70;99.90;;;;;;7353940;32;20475;-58
2023/10/25 09:09:09;;;;;;;3.47;0.80;;;11.70;99.90;;;;;;7356678;32;20584;-57
2023/10/25 09:13:14;;;;;;;2.03;0.70;;;11.50;99.90;;;;;;7344742;32;20190;-57
2023/10/25 09:17:15;;;;;;;2.03;0.57;;;11.30;99.90;;;;;;7345340;32;20212;-57
2023/10/25 09:21:28;;;;;;;1.95;0.75;;;11.40;99.90;;;;;;7345581;32;20540;-58
2023/10/25 09:25:30;;;;;;;3.30;0.85;;;11.30;99.90;;;;;;7343612;32;20118;-57
2023/10/25 09:29:35;;;;;;;4.28;0.70;;;11.30;99.90;;;;;;7346438;32;20203;-57
2023/10/25 09:33:37;;;;;;;1.95;0.80;;;11.30;99.90;;;;;;7343432;32;20126;-57
2023/10/25 09:37:39;;;;;;;4.43;0.98;;;11.10;99.90;;;;;;7341637;32;20126;-57
2023/10/25 09:41:43;;;;;;;2.12;0.80;;;10.90;99.90;;;;;;7345324;32;20234;-58
2023/10/25 09:45:54;;;;;;;3.65;0.90;;;10.90;99.90;;;;;;7346485;32;20146;-57
2023/10/25 09:50:08;;;;;;;2.67;0.90;;;10.90;99.90;;;;;;7349494;32;20206;-58
2023/10/25 09:54:11;;;;;;;5.00;1.15;;;10.90;99.90;;;;;;7354148;32;20600;-58
2023/10/25 09:58:15;;;;;;;2.40;1.15;;;10.90;99.90;;;;;;7345913;32;20294;-57
2023/10/25 10:02:31;;;;;;;2.20;1.20;;;10.80;99.90;;;;;;7360383;32;20158;-57
2023/10/25 10:06:38;;;;;;;4.35;1.52;;;10.80;99.90;;;;;;7348088;32;20138;-56
2023/10/25 10:10:55;;;;;;;4.72;2.00;;;10.80;99.90;;;;;;7351978;32;20201;-57
2023/10/25 10:14:58;;;;;;;6.53;1.42;;;10.70;99.90;;;;;;7351429;32;20570;-55
2023/10/25 10:19:00;;;;;;;5.68;1.60;;;10.70;99.90;;;;;;7346868;32;20119;-57
2023/10/25 10:23:07;;;;;;;3.85;1.33;;;10.80;99.90;;;;;;7346360;32;20508;-57
2023/10/25 10:27:11;;;;;;;2.92;1.12;;;10.90;99.90;;;;;;7339661;32;20131;-57
2023/10/25 10:31:13;;;;;;;3.72;1.30;;;11.00;99.90;;;;;;7353779;32;20588;-57
2023/10/25 10:35:21;;;;;;;2.75;1.25;;;11.20;99.90;;;;;;7352632;32;20273;-57
2023/10/25 10:39:23;;;;;;;1.92;1.02;;;11.30;99.90;;;;;;7348370;32;20446;-57
2023/10/25 10:43:24;;;;;;;4.43;1.15;;;11.40;99.90;;;;;;7349981;32;20265;-57
2023/10/25 10:47:37;;;;;;;2.50;1.10;;;11.40;99.90;;;;;;7337900;32;20508;-57
2023/10/25 10:51:39;;;;;;;2.22;1.10;;;11.50;99.90;;;;;;7351925;32;20103;-57
2023/10/25 10:55:43;;;;;;;2.45;0.98;;;11.50;99.90;;;;;;7347671;32;20119;-57
2023/10/25 10:59:45;;;;;;;4.28;1.08;;;11.40;99.90;;;;;;7347297;32;20649;-58
2023/10/25 11:03:49;;;;;;;2.92;1.08;;;11.40;99.90;;;;;;7341662;32;20183;-57
2023/10/25 11:07:53;;;;;;;3.87;1.30;;;11.30;99.90;;;;;;7339432;32;20990;-56
2023/10/25 11:12:11;;;;;;;4.30;1.40;;;11.30;99.90;;;;;;7338025;32;20277;-59
2023/10/25 11:16:13;;;;;;;4.15;1.30;;;11.30;99.90;;;;;;7340022;32;20471;-58
2023/10/25 11:20:15;;;;;;;6.43;1.40;;;11.30;99.90;;;;;;7347964;32;20575;-58
2023/10/25 11:24:16;;;;;;;2.12;1.48;;;11.20;99.90;;;;;;7343198;32;20111;-58
2023/10/25 11:28:19;;;;;;;3.80;1.37;;;11.20;99.90;;;;;;7336057;32;20160;-58
2023/10/25 11:32:21;;;;;;;4.53;2.10;;;11.20;99.90;;;;;;7344092;32;20161;-58
2023/10/25 11:36:23;;;;;;;4.07;1.70;;;11.10;99.90;;;;;;7334115;32;20180;-58
2023/10/25 11:40:45;;;;;;;4.37;1.62;;;11.20;99.90;;;;;;7346627;32;20242;-57
2023/10/25 11:44:47;;;;;;;6.22;2.15;;;11.00;99.90;;;;;;7336891;32;20134;-56
2023/10/25 11:48:50;;;;;;;2.67;1.62;;;11.00;99.90;;;;;;7342376;32;20128;-57
2023/10/25 11:52:51;;;;;;;2.53;1.92;;;11.00;99.90;;;;;;7345289;32;20188;-57
2023/10/25 11:56:53;;;;;;;3.58;1.98;;;10.90;99.90;;;;;;7343838;32;20138;-56
2023/10/25 12:00:55;;;;;;;2.95;1.65;;;10.90;99.90;;;;;;7342650;32;20215;-55
2023/10/25 12:04:58;;;;;;;1.60;1.40;;;10.80;99.90;;;;;;7340556;32;20503;-57
2023/10/25 12:09:00;;;;;;;2.85;1.70;;;10.90;99.90;;;;;;7337088;32;20180;-57
2023/10/25 12:13:02;;;;;;;2.83;1.62;;;10.90;99.90;;;;;;7326009;32;20167;-57
2023/10/25 12:17:05;;;;;;;2.72;1.50;;;10.90;99.90;;;;;;7343651;32;20106;-57
2023/10/25 12:21:08;;;;;;;4.00;1.95;;;10.90;99.90;;;;;;7344768;32;20186;-56
2023/10/25 12:25:10;;;;;;;2.92;1.90;;;11.00;99.90;;;;;;7344661;32;20126;-57
2023/10/25 12:29:12;;;;;;;3.33;1.80;;;10.90;99.90;;;;;;7346675;32;20111;-57
2023/10/25 12:33:13;;;;;;;2.00;1.73;;;10.90;99.90;;;;;;7344411;32;20563;-56
2023/10/25 12:37:15;;;;;;;4.10;1.92;;;10.90;99.90;;;;;;7348832;32;20208;-57
2023/10/25 12:41:17;;;;;;;2.75;1.70;;;10.90;99.90;;;;;;7347708;32;20126;-57
2023/10/25 12:45:19;;;;;;;5.18;1.90;;;10.90;99.90;;;;;;7332038;32;20539;-58
2023/10/25 12:49:21;;;;;;;3.15;1.58;;;10.90;99.90;;;;;;7333657;32;20586;-59
2023/10/25 12:53:22;;;;;;;3.30;1.60;;;11.00;99.90;;;;;;7342966;32;20149;-58
2023/10/25 12:57:24;;;;;;;4.00;1.70;;;11.00;99.90;;;;;;7344707;32;20131;-58
2023/10/25 13:01:26;;;;;;;2.33;1.60;;;10.90;99.90;;;;;;7345305;32;20155;-58
2023/10/25 13:05:28;;;;;;;2.60;1.40;;;10.90;99.90;;;;;;7344883;32;20179;-58
2023/10/25 13:09:30;;;;;;;3.35;1.70;;;11.00;99.90;;;;;;7339191;32;20137;-59
2023/10/25 13:13:32;;;;;;;2.72;1.87;;;11.00;99.90;;;;;;7326608;32;20099;-58
2023/10/25 13:17:33;;;;;;;2.30;1.70;;;11.00;99.90;;;;;;7341481;32;20132;-57
2023/10/25 13:21:38;;;;;;;2.42;1.67;;;11.00;99.90;;;;;;7347751;32;20263;-57
2023/10/25 13:25:40;;;;;;;2.87;1.50;;;10.90;99.90;;;;;;7332029;32;20604;-57
2023/10/25 13:29:43;;;;;;;1.62;1.40;;;11.00;99.90;;;;;;7353789;32;20103;-56
2023/10/25 13:33:45;;;;;;;2.62;1.60;;;11.00;99.90;;;;;;7347550;32;20189;-61
2023/10/25 13:37:47;;;;;;;2.67;1.58;;;10.90;99.90;;;;;;7344261;32;20510;-56
2023/10/25 13:41:48;;;;;;;3.33;1.62;;;11.00;99.90;;;;;;7348683;32;20202;-57
2023/10/25 13:45:51;;;;;;;2.60;1.30;;;11.00;99.90;;;;;;7327363;32;20172;-58
2023/10/25 13:49:52;;;;;;;2.30;1.60;;;10.80;99.90;;;;;;7341166;32;20104;-57
2023/10/25 13:53:54;;;;;;;2.05;1.67;;;10.80;99.90;;;;;;7350602;32;20172;-57
2023/10/25 13:57:56;;;;;;;3.35;1.62;;;10.90;99.90;;;;;;7346496;32;20207;-57
2023/10/25 14:02:03;;;;;;;;;;;10.80;99.90;;;;;;7342974;32;20266;-55
2023/10/25 14:06:05;;;;;;;3.03;1.42;;;10.80;99.90;;;;;;7340515;32;20036;-55
2023/10/25 14:10:08;;;;;;;3.22;1.67;;;10.80;99.90;;;;;;7350938;32;20193;-57
2023/10/25 14:14:10;;;;;;;5.28;1.83;;;10.80;99.90;;;;;;7351066;32;20111;-58
2023/10/25 14:18:12;;;;;;;3.55;1.58;;;10.70;99.90;;;;;;7355952;32;20134;-58
2023/10/25 14:22:14;;;;;;;3.28;1.75;;;10.80;99.90;;;;;;7348351;32;20129;-58
2023/10/25 14:26:16;;;;;;;2.50;1.45;;;10.70;99.90;;;;;;7355769;32;20232;-57
2023/10/25 14:30:18;;;;;;;2.00;1.45;;;10.80;99.90;;;;;;7352998;32;20233;-57
2023/10/25 14:34:19;;;;;;;2.45;1.58;;;10.80;99.90;;;;;;7356566;32;20111;-57
2023/10/25 14:38:21;;;;;;;2.65;1.27;;;10.80;99.90;;;;;;7352599;32;20160;-58
2023/10/25 14:42:23;;;;;;;1.70;1.10;;;10.90;99.90;;;;;;7351916;32;20772;-57
2023/10/25 14:46:27;;;;;;;1.25;1.00;;;11.00;99.90;;;;;;7356343;32;20134;-56
2023/10/25 14:50:36;;;;;;;1.40;0.90;;;11.00;99.90;;;;;;7350560;32;20107;-57
2023/10/25 14:54:38;;;;;;;2.05;1.10;;;11.00;99.90;;;;;;7352391;32;20218;-57
2023/10/25 14:58:40;;;;;;;2.22;1.37;;;11.00;99.90;;;;;;7350313;32;20135;-57
2023/10/25 15:02:41;;;;;;;2.22;1.10;;;11.00;99.90;;;;;;7354199;32;20107;-57
2023/10/25 15:06:43;;;;;;;2.45;1.25;;;11.00;99.90;;;;;;7348120;32;20127;-57
2023/10/25 15:10:45;;;;;;;2.60;1.70;;;10.90;99.90;;;;;;7347965;32;20389;-57
2023/10/25 15:14:47;;;;;;;4.15;2.20;;;11.00;99.90;;;;;;7349433;32;20161;-57
2023/10/25 15:18:54;;;;;;;4.78;2.08;;;10.90;99.90;;;;;;7350395;32;20476;-57
2023/10/25 15:22:56;;;;;;;3.20;1.70;;;11.00;99.90;;;;;;7341467;32;20206;-57
2023/10/25 15:26:58;;;;;;;3.37;2.10;;;11.00;99.90;;;;;;7351388;32;20123;-58
2023/10/25 15:31:02;;;;;;;4.10;1.90;;;11.00;99.90;;;;;;7351234;32;20124;-56
2023/10/25 15:35:04;;;;;;;3.30;2.40;;;11.00;99.90;;;;;;7353038;32;20125;-57
2023/10/25 15:39:06;;;;;;;2.30;1.40;;;11.00;99.90;;;;;;7353300;32;20236;-57
2023/10/25 15:43:11;;;;;;;1.80;1.23;;;11.00;99.90;;;;;;7348912;32;20269;-57
2023/10/25 15:47:12;;;;;;;1.70;1.15;;;11.00;99.90;;;;;;7346911;32;20122;-57
2023/10/25 15:51:15;;;;;;;1.37;1.10;;;11.00;99.90;;;;;;7351962;32;20099;-56
2023/10/25 15:55:17;;;;;;;2.65;1.70;;;11.00;99.90;;;;;;7341483;32;20152;-56
2023/10/25 15:59:19;;;;;;;1.80;1.50;;;11.00;99.90;;;;;;7346725;32;20158;-57
2023/10/25 16:03:21;;;;;;;2.60;1.62;;;11.00;99.90;;;;;;7349933;32;20145;-57
2023/10/25 16:07:23;;;;;;;1.60;1.10;;;11.00;99.90;;;;;;7348124;32;20107;-57
2023/10/25 16:11:26;;;;;;;2.72;1.23;;;11.00;99.90;;;;;;7347856;32;20099;-56
2023/10/25 16:15:28;;;;;;;2.50;1.60;;;11.00;99.90;;;;;;7341898;32;20119;-56
2023/10/25 16:19:30;;;;;;;2.35;1.48;;;11.10;99.90;;;;;;7354032;32;20112;-57
2023/10/25 16:23:41;;;;;;;1.60;1.25;;;11.10;99.90;;;;;;7346516;32;20183;-57
2023/10/25 16:27:43;;;;;;;2.17;1.40;;;11.10;99.90;;;;;;7349699;32;20133;-57
2023/10/25 16:31:44;;;;;;;2.72;0.90;;;11.00;99.90;;;;;;7338850;32;20244;-57
2023/10/25 16:35:46;;;;;;;1.30;1.15;;;11.10;99.90;;;;;;7347675;32;20220;-57
2023/10/25 16:39:48;;;;;;;2.00;1.10;;;11.10;99.90;;;;;;7354619;32;20141;-57
2023/10/25 16:43:49;;;;;;;1.87;1.00;;;11.10;99.90;;;;;;7339401;32;20147;-56
2023/10/25 16:47:51;;;;;;;2.58;1.10;;;11.10;99.90;;;;;;7357549;32;20123;-57
2023/10/25 16:51:53;;;;;;;1.20;0.98;;;11.20;99.90;;;;;;7349400;32;20213;-56
2023/10/25 16:55:55;;;;;;;2.08;1.30;;;11.10;99.90;;;;;;7344897;32;20134;-57
2023/10/25 16:59:57;;;;;;;3.25;1.92;;;11.10;99.90;;;;;;7348697;32;20199;-59
2023/10/25 17:03:58;;;;;;;6.07;2.50;;;11.00;99.90;;;;;;7348634;32;20521;-58
2023/10/25 17:08:01;;;;;;;6.65;3.85;;;11.00;99.90;;;;;;7349251;32;20103;-58
2023/10/25 17:12:03;;;;;;;6.15;3.42;;;11.00;99.90;;;;;;7347971;32;20137;-59
2023/10/25 17:16:05;;;;;;;4.28;3.67;;;11.00;99.90;;;;;;7344306;32;20119;-58
2023/10/25 17:20:08;;;;;;;4.87;3.22;;;11.10;99.90;;;;;;7349624;32;20318;-57
2023/10/25 17:24:12;;;;;;;2.15;1.67;;;11.10;99.90;;;;;;7344899;32;20104;-58
2023/10/25 17:28:14;;;;;;;5.62;3.60;;;11.00;99.90;;;;;;7348580;32;20114;-58
2023/10/25 17:32:16;;;;;;;2.58;2.20;;;10.90;99.90;;;;;;7348986;32;20551;-57
2023/10/25 17:36:19;;;;;;;6.00;3.58;;;10.90;99.90;;;;;;7354535;32;20214;-58
2023/10/25 17:40:22;;;;;;;3.35;2.72;;;11.10;99.90;;;;;;7355648;32;20158;-57
2023/10/25 17:44:23;;;;;;;3.90;3.10;;;11.00;99.90;;;;;;7345759;32;20102;-57
2023/10/25 17:48:26;;;;;;;2.67;2.17;;;10.90;99.90;;;;;;7345929;32;20175;-57
2023/10/25 17:52:28;;;;;;;5.30;3.25;;;11.00;99.90;;;;;;7352364;32;20099;-58
2023/10/25 17:56:46;;;;;;;6.43;3.62;;;11.10;99.90;;;;;;7349771;32;20208;-57
2023/10/25 18:00:49;;;;;;;4.60;3.60;;;11.10;99.90;;;;;;7344142;32;20396;-57
2023/10/25 18:04:51;;;;;;;4.72;3.45;;;11.20;99.90;;;;;;7350806;32;20267;-57
2023/10/25 18:08:53;;;;;;;5.80;4.05;;;11.20;99.90;;;;;;7350055;32;20111;-57
2023/10/25 18:12:55;;;;;;;4.72;3.78;;;11.30;99.90;;;;;;7349217;32;20134;-56
2023/10/25 18:16:57;;;;;;;8.20;5.65;;;11.30;99.90;;;;;;7348127;32;20162;-56
2023/10/25 18:20:59;;;;;;;6.90;5.07;;;11.40;99.90;;;;;;7351243;32;20225;-57
2023/10/25 18:25:01;;;;;;;7.62;5.45;;;11.40;99.90;;;;;;7348601;32;20156;-57
2023/10/25 18:29:02;;;;;;;8.43;5.05;;;11.50;99.90;;;;;;7354919;32;20252;-57
2023/10/25 18:33:05;;;;;;;7.50;5.85;;;11.50;99.90;;;;;;7348947;32;20107;-57
2023/10/25 18:37:07;;;;;;;8.93;5.22;;;11.60;99.90;;;;;;7353186;32;20241;-56
2023/10/25 18:41:09;;;;;;;6.10;5.05;;;11.60;99.90;;;;;;7350713;32;20198;-58
2023/10/25 18:45:11;;;;;;;9.68;5.87;;;11.60;99.90;;;;;;7351808;32;20459;-58
2023/10/25 18:49:13;;;;;;;7.87;5.82;;;11.60;99.90;;;;;;7353174;32;20161;-58
2023/10/25 18:53:15;;;;;;;7.35;5.55;;;11.60;99.90;;;;;;7352988;32;20130;-57
2023/10/25 18:57:17;;;;;;;8.23;6.15;;;11.60;99.90;;;;;;7350557;32;20559;-57
2023/10/25 19:01:20;;;;;;;10.00;6.62;;;11.60;99.90;;;;;;7357906;32;20255;-58
2023/10/25 19:05:21;;;;;;;8.80;6.90;;;11.60;99.90;;;;;;7345684;32;20174;-57
2023/10/25 19:09:43;;;;;;;8.88;6.82;;;11.70;99.90;;;;;;7358986;32;20260;-57
2023/10/25 19:13:53;;;;;;;8.95;7.07;;;11.70;99.90;;;;;;7354436;32;20264;-64
2023/10/25 19:17:56;;;;;;;9.23;7.47;;;11.80;99.90;;;;;;7362362;32;20208;-56
2023/10/25 19:21:58;;;;;;;8.48;7.30;;;11.80;99.90;;;;;;7356366;32;20129;-56
2023/10/25 19:26:02;;;;;;;9.02;7.80;;;11.70;99.90;;;;;;7349720;32;20281;-57
2023/10/25 19:30:04;;;;;;;10.50;7.68;;;11.70;99.90;;;;;;7360962;32;20107;-57
2023/10/25 19:34:06;;;;;;;9.07;7.07;;;11.70;99.90;;;;;;7345566;32;20138;-56
2023/10/25 19:38:08;;;;;;;9.18;7.32;;;11.70;99.90;;;;;;7354152;32;20114;-57
2023/10/25 19:42:10;;;;;;;9.38;7.03;;;11.70;99.90;;;;;;7351332;32;20190;-57
2023/10/25 19:46:11;;;;;;;8.50;6.80;;;11.60;99.90;;;;;;7349010;32;20176;-56
2023/10/25 19:50:15;;;;;;;9.65;7.35;;;11.70;99.90;;;;;;7354736;32;20115;-56
2023/10/25 19:54:17;;;;;;;8.27;6.28;;;11.60;99.90;;;;;;7354705;32;20138;-56
2023/10/25 19:58:21;;;;;;;8.18;5.50;;;11.60;99.90;;;;;;7348656;32;20150;-56
2023/10/25 20:02:23;;;;;;;6.65;5.60;;;11.60;99.90;;;;;;7344078;32;20138;-56
2023/10/25 20:06:25;;;;;;;5.80;5.25;;;11.60;99.90;;;;;;7344932;32;20139;-56
2023/10/25 20:10:27;;;;;;;5.43;4.93;;;11.50;99.90;;;;;;7349003;32;20246;-58
2023/10/25 20:14:29;;;;;;;5.12;4.45;;;11.50;99.90;;;;;;7340707;32;20095;-59
2023/10/25 20:18:30;;;;;;;8.57;5.40;;;11.50;99.90;;;;;;7342789;32;20112;-56
2023/10/25 20:22:36;;;;;;;5.50;4.65;;;11.50;99.90;;;;;;7352801;32;20509;-57
2023/10/25 20:26:38;;;;;;;8.48;4.68;;;11.40;99.90;;;;;;7350023;32;20121;-58
2023/10/25 20:30:42;;;;;;;7.12;4.90;;;11.30;99.90;;;;;;7348506;32;20107;-58
2023/10/25 20:34:46;;;;;;;7.15;5.65;;;11.30;99.90;;;;;;7350635;32;20236;-58
2023/10/25 20:38:48;;;;;;;8.43;6.47;;;11.30;99.90;;;;;;7351104;32;20131;-59
2023/10/25 20:42:50;;;;;;;7.32;5.87;;;11.40;99.90;;;;;;7347373;32;20251;-58
2023/10/25 20:46:52;;;;;;;7.60;6.47;;;11.30;99.90;;;;;;7344164;32;20237;-59
2023/10/25 20:50:58;;;;;;;8.73;7.07;;;11.40;99.90;;;;;;7348150;32;20296;-58
2023/10/25 20:55:00;;;;;;;8.37;6.77;;;11.40;99.90;;;;;;7346735;32;20527;-58
2023/10/25 20:59:02;;;;;;;8.27;7.35;;;11.20;99.90;;;;;;7345503;32;20523;-59
2023/10/25 21:03:04;;;;;;;8.27;6.30;;;11.20;99.90;;;;;;7339922;32;20119;-58
2023/10/25 21:07:06;;;;;;;9.27;6.18;;;11.20;99.90;;;;;;7348685;32;20168;-58
2023/10/25 21:11:08;;;;;;;8.52;6.25;;;11.20;99.90;;;;;;7351803;32;20138;-58